Time;durP1;ratioP1;P1;durP2;ratioP2;P2;SDS_P1;SDS_P2;PMS_P1;PMS_P2;Temp;Humidity;BMP_temperature;BMP_pressure;BME280_temperature;BME280_humidity;BME280_pressure;Samples;Min_cycle;Max_cycle;Signal;HPM_P1;HPM_P2
2022/11/13 00:00:49;;;;;;;41.10;20.08;;;;;;;5.34;100.00;102778.06;4929520;29;20042;-74
2022/11/13 00:03:15;;;;;;;35.75;20.35;;;;;;;5.31;100.00;102783.63;4930522;29;20031;-74
2022/11/13 00:05:40;;;;;;;31.65;17.80;;;;;;;5.25;100.00;102767.81;4930004;29;20031;-74
2022/11/13 00:08:05;;;;;;;40.08;19.58;;;;;;;5.15;100.00;102765.59;4914185;29;20047;-73
2022/11/13 00:10:31;;;;;;;34.17;18.60;;;;;;;5.08;100.00;102766.81;4930365;29;20021;-74
2022/11/13 00:12:56;;;;;;;38.47;21.02;;;;;;;5.13;100.00;102759.41;4915625;29;20024;-73
2022/11/13 00:15:21;;;;;;;33.92;17.70;;;;;;;5.15;100.00;102765.59;4915355;29;20044;-74
2022/11/13 00:17:47;;;;;;;36.97;19.58;;;;;;;5.24;100.00;102771.44;4914950;29;20477;-74
2022/11/13 00:20:12;;;;;;;35.83;20.45;;;;;;;5.27;100.00;102766.78;4929588;29;20519;-74
2022/11/13 00:22:38;;;;;;;39.15;21.13;;;;;;;5.20;100.00;102769.84;4912815;29;20377;-74
2022/11/13 00:25:03;;;;;;;43.30;23.40;;;;;;;5.21;100.00;102760.84;4928109;29;20032;-74
2022/11/13 00:27:30;;;;;;;38.75;21.30;;;;;;;5.23;100.00;102748.22;4929117;29;20016;-74
2022/11/13 00:29:55;;;;;;;46.90;22.23;;;;;;;5.28;100.00;102756.91;4928896;29;20028;-74
2022/11/13 00:32:20;;;;;;;36.17;18.60;;;;;;;5.18;100.00;102752.00;4915197;29;20095;-70
2022/11/13 00:34:46;;;;;;;55.55;27.10;;;;;;;5.02;100.00;102751.03;4912931;29;20481;-70
2022/11/13 00:37:11;;;;;;;56.95;26.08;;;;;;;5.00;100.00;102747.53;4929121;29;20040;-70
2022/11/13 00:39:36;;;;;;;37.95;20.30;;;;;;;5.01;100.00;102749.28;4928643;29;20028;-68
2022/11/13 00:42:02;;;;;;;45.90;21.92;;;;;;;5.01;100.00;102749.28;4914226;29;20038;-71
2022/11/13 00:44:27;;;;;;;34.60;18.95;;;;;;;4.93;100.00;102751.47;4928467;29;20080;-69
2022/11/13 00:46:53;;;;;;;38.65;20.33;;;;;;;5.04;100.00;102754.50;4929129;29;20090;-70
2022/11/13 00:49:18;;;;;;;41.60;21.33;;;;;;;5.09;100.00;102752.47;4929102;29;20047;-70
2022/11/13 00:51:43;;;;;;;44.45;21.02;;;;;;;4.95;100.00;102749.56;4913861;29;20119;-68
2022/11/13 00:54:09;;;;;;;39.75;21.98;;;;;;;5.14;100.00;102755.78;4912945;29;20087;-70
2022/11/13 00:56:34;;;;;;;37.65;20.40;;;;;;;5.11;100.00;102755.94;4928546;29;20039;-70
2022/11/13 00:59:00;;;;;;;37.70;20.63;;;;;;;5.02;100.00;102751.03;4913568;29;20030;-70
2022/11/13 01:01:25;;;;;;;37.30;22.30;;;;;;;5.09;100.00;102752.47;4912961;29;20062;-70
2022/11/13 01:03:50;;;;;;;37.50;21.40;;;;;;;5.26;100.00;102753.44;4914104;29;20528;-68
2022/11/13 01:06:22;;;;;;;53.58;28.63;;;;;;;5.10;100.00;102753.34;4928131;29;20035;-70
2022/11/13 01:08:48;;;;;;;;;;;;;;;5.23;100.00;102758.97;4928833;29;20032;-70
2022/11/13 01:11:19;;;;;;;47.42;23.77;;;;;;;5.24;100.00;102744.59;4928475;29;19911;-68
2022/11/13 01:13:46;;;;;;;45.53;23.13;;;;;;;5.23;100.00;102748.22;4928258;29;20031;-69
2022/11/13 01:16:13;;;;;;;41.90;19.27;;;;;;;5.05;100.00;102745.50;4928576;29;20103;-70
2022/11/13 01:18:40;;;;;;;40.17;20.83;;;;;;;5.07;100.00;102748.97;4914014;29;20063;-69
2022/11/13 01:21:08;;;;;;;41.05;21.92;;;;;;;4.92;100.00;102748.88;4928256;29;20481;-70
2022/11/13 01:23:34;;;;;;;41.83;20.75;;;;;;;4.99;100.00;102750.31;4913889;29;20028;-70
2022/11/13 01:26:08;;;;;;;38.58;20.23;;;;;;;5.03;100.00;102747.41;4913731;29;20051;-70
2022/11/13 01:28:35;;;;;;;37.17;19.98;;;;;;;5.10;100.00;102743.47;4928770;29;20024;-70
2022/11/13 01:31:04;;;;;;;37.20;20.35;;;;;;;4.99;100.00;102740.44;4912919;29;20020;-70
2022/11/13 01:33:29;;;;;;;41.50;22.05;;;;;;;5.09;100.00;102743.56;4913715;29;20119;-69
2022/11/13 01:35:59;;;;;;;34.65;20.38;;;;;;;5.12;100.00;102741.56;4912122;29;20120;-69
2022/11/13 01:38:25;;;;;;;37.83;21.17;;;;;;;5.05;100.00;102739.28;4928499;29;20024;-70
2022/11/13 01:40:50;;;;;;;43.33;22.98;;;;;;;5.14;100.00;102739.66;4928069;29;20531;-69
2022/11/13 01:43:28;;;;;;;42.15;20.98;;;;;;;5.07;100.00;102738.22;4928310;29;20047;-67
2022/11/13 01:45:56;;;;;;;41.38;21.55;;;;;;;5.08;100.00;102729.22;4928126;29;20040;-69
2022/11/13 01:48:21;;;;;;;49.38;25.40;;;;;;;5.21;100.00;102728.63;4914098;29;20056;-69
2022/11/13 01:50:47;;;;;;;42.22;24.02;;;;;;;5.26;100.00;102722.06;4928369;29;20115;-69
2022/11/13 01:53:12;;;;;;;44.45;22.90;;;;;;;5.34;100.00;102725.22;4927965;29;20042;-69
2022/11/13 01:55:38;;;;;;;43.70;23.40;;;;;;;5.33;100.00;102719.94;4928526;29;20139;-71
2022/11/13 01:58:07;;;;;;;40.28;20.80;;;;;;;5.28;100.00;102719.28;4913805;29;20033;-70
2022/11/13 02:00:33;;;;;;;41.75;22.38;;;;;;;5.34;100.00;102713.59;4912541;29;20024;-70
2022/11/13 02:02:58;;;;;;;46.83;23.30;;;;;;;5.39;100.00;102722.31;4912590;29;20060;-69
2022/11/13 02:05:23;;;;;;;42.70;22.67;;;;;;;5.39;100.00;102712.44;4928213;29;20024;-70
2022/11/13 02:07:49;;;;;;;45.78;25.85;;;;;;;5.36;100.00;102709.91;4928348;29;20136;-70
2022/11/13 02:10:14;;;;;;;55.38;25.17;;;;;;;5.46;100.00;102704.91;4927954;29;20114;-73
2022/11/13 02:12:45;;;;;;;46.75;23.42;;;;;;;5.37;100.00;102703.59;4916994;29;20031;-69
2022/11/13 02:15:11;;;;;;;41.67;24.63;;;;;;;5.45;100.00;102708.56;4915264;29;20039;-70
2022/11/13 02:17:42;;;;;;;44.08;22.65;;;;;;;5.35;100.00;102699.25;4931244;29;20028;-69
2022/11/13 02:20:08;;;;;;;39.77;20.17;;;;;;;5.16;100.00;102705.56;4931080;29;20024;-71
2022/11/13 02:22:55;;;;;;;48.67;22.80;;;;;;;5.13;100.00;102694.97;4916841;29;20032;-71
2022/11/13 02:25:21;;;;;;;46.80;23.42;;;;;;;5.21;100.00;102696.38;4916250;29;20520;-71
2022/11/13 02:27:49;;;;;;;41.35;21.70;;;;;;;5.21;100.00;102699.06;4915447;29;20086;-70
2022/11/13 02:30:18;;;;;;;47.60;25.00;;;;;;;5.28;100.00;102693.34;4916875;29;20103;-70
2022/11/13 02:32:45;;;;;;;42.33;23.58;;;;;;;5.27;100.00;102696.94;4930950;29;20075;-71
2022/11/13 02:35:13;;;;;;;41.55;23.70;;;;;;;5.29;100.00;102704.94;4916337;29;20050;-69
2022/11/13 02:37:38;;;;;;;37.97;20.95;;;;;;;5.21;100.00;102702.63;4930850;29;20031;-69
2022/11/13 02:40:05;;;;;;;41.95;23.05;;;;;;;5.24;100.00;102696.25;4916161;29;20028;-69
2022/11/13 02:42:30;;;;;;;38.55;20.85;;;;;;;5.24;100.00;102701.63;4916621;29;20031;-68
2022/11/13 02:44:55;;;;;;;42.80;21.77;;;;;;;5.29;100.00;102699.56;4916497;29;20099;-70
2022/11/13 02:47:20;;;;;;;44.80;22.77;;;;;;;5.30;100.00;102695.94;4930725;29;20060;-70
2022/11/13 02:49:46;;;;;;;57.20;28.70;;;;;;;5.33;100.00;102711.88;4916188;29;20028;-70
2022/11/13 02:52:11;;;;;;;54.38;27.45;;;;;;;5.33;100.00;102702.00;4930562;29;20024;-70
2022/11/13 02:54:37;;;;;;;61.85;28.30;;;;;;;5.27;100.00;102696.94;4930684;29;20036;-70
2022/11/13 02:57:02;;;;;;;47.13;26.75;;;;;;;5.33;100.00;102698.44;4930585;29;20088;-70
2022/11/13 02:59:27;;;;;;;53.40;23.42;;;;;;;5.36;100.00;102701.00;4914320;29;20028;-70
2022/11/13 03:01:53;;;;;;;47.65;25.40;;;;;;;5.35;100.00;102704.63;4930625;29;20118;-70
2022/11/13 03:04:18;;;;;;;46.45;23.90;;;;;;;5.32;100.00;102699.41;4915389;29;20413;-70
2022/11/13 03:06:44;;;;;;;38.45;21.80;;;;;;;5.35;100.00;102696.56;4930105;29;20020;-70
2022/11/13 03:09:09;;;;;;;47.42;25.83;;;;;;;5.38;100.00;102693.72;4915620;29;20111;-69
2022/11/13 03:11:34;;;;;;;50.08;26.25;;;;;;;5.44;100.00;102677.28;4930297;29;20501;-70
2022/11/13 03:14:00;;;;;;;63.72;28.73;;;;;;;5.47;100.00;102677.09;4929484;29;20024;-70
2022/11/13 03:16:25;;;;;;;49.97;27.52;;;;;;;5.41;100.00;102690.84;4915440;29;20044;-70
2022/11/13 03:18:50;;;;;;;41.70;24.42;;;;;;;5.44;100.00;102693.38;4914356;29;20069;-70
2022/11/13 03:21:16;;;;;;;47.85;25.50;;;;;;;5.35;100.00;102688.50;4930361;29;20035;-69
2022/11/13 03:23:44;;;;;;;49.17;27.02;;;;;;;5.34;100.00;102684.06;4929552;29;20036;-69
2022/11/13 03:26:12;;;;;;;45.55;23.50;;;;;;;5.40;100.00;102673.00;4904193;29;20051;-72
2022/11/13 03:28:38;;;;;;;58.80;26.40;;;;;;;5.46;100.00;102675.38;4930041;29;20028;-69
2022/11/13 03:31:04;;;;;;;80.70;36.30;;;;;;;5.52;100.00;102669.66;4913988;29;20032;-69
2022/11/13 03:33:30;;;;;;;50.03;26.50;;;;;;;5.51;100.00;102661.69;4914127;29;20035;-69
2022/11/13 03:35:55;;;;;;;71.88;34.25;;;;;;;5.35;100.00;102667.88;4915539;29;20028;-69
2022/11/13 03:38:21;;;;;;;77.90;35.05;;;;;;;5.43;100.00;102654.03;4929867;29;20462;-70
2022/11/13 03:40:47;;;;;;;73.65;31.95;;;;;;;5.42;100.00;102652.31;4929277;29;20071;-70
2022/11/13 03:43:14;;;;;;;91.68;35.83;;;;;;;5.30;100.00;102650.28;4913595;29;20032;-70
2022/11/13 03:45:39;;;;;;;87.93;38.45;;;;;;;5.31;100.00;102649.31;4914455;29;20028;-70
2022/11/13 03:48:05;;;;;;;92.40;40.88;;;;;;;5.37;100.00;102654.38;4913713;29;20218;-70
2022/11/13 03:50:30;;;;;;;72.70;35.70;;;;;;;5.41;100.00;102647.88;4913630;29;20040;-70
2022/11/13 03:52:55;;;;;;;79.15;35.45;;;;;;;5.38;100.00;102648.03;4929318;29;20111;-70
2022/11/13 03:55:21;;;;;;;78.18;37.75;;;;;;;5.37;100.00;102649.00;4912910;29;20036;-71
2022/11/13 03:57:47;;;;;;;87.45;38.47;;;;;;;5.39;100.00;102647.09;4914577;29;20039;-70
2022/11/13 04:00:13;;;;;;;81.35;36.92;;;;;;;5.44;100.00;102650.41;4959008;23;20388;-72
2022/11/13 04:02:39;;;;;;;89.57;41.28;;;;;;;5.51;100.00;102645.56;4943037;28;20043;-73
2022/11/13 04:05:05;;;;;;;96.72;43.50;;;;;;;5.50;100.00;102641.16;4939909;29;20028;-72
2022/11/13 04:07:31;;;;;;;94.35;45.70;;;;;;;5.37;100.00;102639.13;4932722;29;20063;-72
2022/11/13 04:09:56;;;;;;;86.70;39.78;;;;;;;5.47;100.00;102639.47;4929465;29;20040;-72
2022/11/13 04:12:21;;;;;;;111.57;44.25;;;;;;;5.58;100.00;102637.09;4913311;29;20028;-72
2022/11/13 04:14:47;;;;;;;86.10;41.47;;;;;;;5.50;100.00;102633.97;4929843;29;20058;-71
2022/11/13 04:17:12;;;;;;;95.22;43.33;;;;;;;5.43;100.00;102633.41;4932223;29;20031;-72
2022/11/13 04:19:37;;;;;;;84.20;37.47;;;;;;;5.59;100.00;102636.13;4938545;29;20024;-72
2022/11/13 04:22:03;;;;;;;90.00;39.83;;;;;;;5.48;100.00;102630.50;4914687;29;20055;-71
2022/11/13 04:24:28;;;;;;;79.18;35.50;;;;;;;5.50;100.00;102628.59;4913326;29;20051;-71
2022/11/13 04:26:53;;;;;;;82.63;38.17;;;;;;;5.57;100.00;102630.00;4913614;29;20091;-72
2022/11/13 04:29:19;;;;;;;94.28;40.03;;;;;;;5.55;100.00;102637.28;4929716;29;20059;-72
2022/11/13 04:31:44;;;;;;;89.70;40.00;;;;;;;5.59;100.00;102633.47;4932125;29;20043;-72
2022/11/13 04:34:10;;;;;;;77.90;35.22;;;;;;;5.64;100.00;102636.78;4923624;29;20035;-72
2022/11/13 04:36:35;;;;;;;65.43;33.22;;;;;;;5.62;100.00;102633.31;4928840;29;20025;-72
2022/11/13 04:39:00;;;;;;;92.82;42.80;;;;;;;5.60;100.00;102629.81;4929289;29;20032;-71
2022/11/13 04:44:10;;;;;;;67.38;30.27;;;;;;;5.48;100.00;102634.97;4933327;29;20028;-72
2022/11/13 04:46:35;;;;;;;60.38;29.98;;;;;;;5.50;100.00;102628.59;4947834;29;20051;-71
2022/11/13 04:49:00;;;;;;;79.95;33.80;;;;;;;5.60;100.00;102629.81;4947515;29;20635;-72
2022/11/13 04:51:26;;;;;;;77.95;35.67;;;;;;;5.61;100.00;102634.25;4947707;29;20028;-72
2022/11/13 04:53:51;;;;;;;61.58;29.92;;;;;;;5.54;100.00;102630.19;4932807;29;20050;-72
2022/11/13 04:56:16;;;;;;;71.10;33.25;;;;;;;5.58;100.00;102628.16;4932984;29;20036;-72
2022/11/13 04:58:42;;;;;;;81.47;36.30;;;;;;;5.57;100.00;102624.63;4937151;29;20035;-72
2022/11/13 05:01:07;;;;;;;94.38;39.45;;;;;;;5.52;100.00;102621.31;4921505;29;20043;-72
2022/11/13 05:03:33;;;;;;;81.03;36.97;;;;;;;5.58;100.00;102626.34;4912301;29;20028;-72
2022/11/13 05:06:03;;;;;;;79.88;38.92;;;;;;;5.46;100.00;102627.00;4913915;29;20028;-72
2022/11/13 05:08:28;;;;;;;75.68;34.80;;;;;;;5.58;100.00;102631.72;4918994;29;20038;-72
2022/11/13 05:10:54;;;;;;;62.08;29.85;;;;;;;5.54;100.00;102624.81;4928409;29;20119;-72
2022/11/13 05:13:19;;;;;;;64.55;29.48;;;;;;;5.52;100.00;102625.81;4933589;29;20075;-73
2022/11/13 05:15:44;;;;;;;65.95;33.50;;;;;;;5.55;100.00;102617.59;4932439;29;20051;-72
2022/11/13 05:18:10;;;;;;;66.65;32.50;;;;;;;5.54;100.00;102624.81;4947141;29;20536;-72
2022/11/13 05:20:35;;;;;;;71.55;33.28;;;;;;;5.37;100.00;102622.13;4947726;29;20090;-72
2022/11/13 05:23:00;;;;;;;84.97;37.90;;;;;;;5.30;100.00;102610.84;4947606;29;20078;-72
2022/11/13 05:25:26;;;;;;;98.05;43.15;;;;;;;5.27;100.00;102620.88;4947404;28;20039;-72
2022/11/13 05:27:51;;;;;;;78.43;38.08;;;;;;;5.24;100.00;102604.94;4932655;29;20031;-72
2022/11/13 05:30:16;;;;;;;85.90;40.90;;;;;;;5.17;100.00;102610.63;4913259;29;20199;-72
2022/11/13 05:32:42;;;;;;;106.47;41.42;;;;;;;5.26;100.00;102613.78;4911810;29;20038;-71
2022/11/13 05:35:07;;;;;;;86.43;39.97;;;;;;;5.24;100.00;102604.94;4925183;29;20057;-72
2022/11/13 05:37:33;;;;;;;93.32;40.60;;;;;;;5.33;100.00;102612.50;4931807;29;20032;-72
2022/11/13 05:39:58;;;;;;;95.40;39.10;;;;;;;5.25;100.00;102612.91;4931535;29;20150;-72
2022/11/13 05:42:24;;;;;;;118.20;45.33;;;;;;;5.07;100.00;102606.69;4947769;29;20078;-72
2022/11/13 05:44:49;;;;;;;89.72;39.75;;;;;;;5.13;100.00;102603.66;4947538;28;20172;-72
2022/11/13 05:47:14;;;;;;;107.20;43.60;;;;;;;5.13;100.00;102603.66;4936092;29;20035;-72
2022/11/13 05:49:39;;;;;;;104.07;42.67;;;;;;;5.06;100.00;102601.41;4936498;29;20063;-72
2022/11/13 05:52:05;;;;;;;132.85;51.00;;;;;;;4.88;100.00;102603.22;4935886;29;20114;-72
2022/11/13 05:54:30;;;;;;;142.43;50.63;;;;;;;4.71;100.00;102595.19;4936190;29;20023;-72
2022/11/13 05:56:56;;;;;;;89.93;39.13;;;;;;;4.95;100.00;102598.38;4935969;29;20036;-72
2022/11/13 05:59:21;;;;;;;124.60;50.53;;;;;;;4.81;100.00;102596.41;4935025;29;20024;-72
2022/11/13 06:01:46;;;;;;;126.43;48.53;;;;;;;4.70;100.00;102599.69;4920522;29;20481;-72
2022/11/13 06:04:12;;;;;;;125.50;50.47;;;;;;;4.75;100.00;102592.22;4938521;28;20030;-72
2022/11/13 06:06:37;;;;;;;128.57;47.47;;;;;;;4.62;100.00;102586.63;4924900;29;20031;-73
2022/11/13 06:09:04;;;;;;;127.40;49.80;;;;;;;4.60;100.00;102588.53;4930965;29;20472;-72
2022/11/13 06:11:30;;;;;;;130.55;52.30;;;;;;;4.67;100.00;102583.72;4949744;29;20020;-73
2022/11/13 06:13:56;;;;;;;145.10;53.45;;;;;;;4.60;100.00;102580.47;4923867;29;20169;-73
2022/11/13 06:16:34;;;;;;;176.15;60.15;;;;;;;4.68;100.00;102587.25;4922616;29;20024;-73
2022/11/13 06:19:02;;;;;;;173.23;59.10;;;;;;;4.70;100.00;102582.72;4940047;29;20038;-73
2022/11/13 06:21:29;;;;;;;160.55;55.50;;;;;;;4.93;100.00;102585.06;4923217;29;20027;-74
2022/11/13 06:23:59;;;;;;;169.65;55.80;;;;;;;4.95;100.00;102585.84;4915948;29;20055;-74
2022/11/13 06:26:30;;;;;;;176.85;57.67;;;;;;;4.74;100.00;102584.28;4949906;29;20536;-74
2022/11/13 06:28:57;;;;;;;150.93;51.80;;;;;;;4.86;100.00;102578.28;4935064;29;20388;-72
2022/11/13 06:31:28;;;;;;;150.30;53.28;;;;;;;4.88;100.00;102576.38;4928162;29;20032;-70
2022/11/13 06:33:55;;;;;;;180.93;59.20;;;;;;;4.75;100.00;102577.94;4933896;29;20031;-73
2022/11/13 06:36:23;;;;;;;192.05;59.47;;;;;;;4.81;100.00;102569.59;4949919;29;20035;-73
2022/11/13 06:38:50;;;;;;;147.52;52.00;;;;;;;4.78;100.00;102569.75;4922159;29;20031;-74
2022/11/13 06:41:18;;;;;;;171.60;54.80;;;;;;;4.85;100.00;102571.19;4922402;29;20051;-73
2022/11/13 06:43:44;;;;;;;138.57;48.85;;;;;;;4.76;100.00;102571.63;4914694;29;20082;-74
2022/11/13 06:46:28;;;;;;;163.38;56.63;;;;;;;4.94;100.00;102570.69;4915686;29;20110;-74
2022/11/13 06:48:54;;;;;;;123.57;48.25;;;;;;;4.99;100.00;102568.63;4916216;29;20032;-73
2022/11/13 06:51:22;;;;;;;156.68;51.90;;;;;;;4.89;100.00;102583.50;4914682;29;20055;-73
2022/11/13 06:53:47;;;;;;;159.75;54.13;;;;;;;4.90;100.00;102585.22;4915647;29;20062;-73
2022/11/13 06:56:13;;;;;;;169.05;56.83;;;;;;;4.93;100.00;102579.69;4930184;29;20080;-72
2022/11/13 06:58:39;;;;;;;149.13;52.50;;;;;;;5.00;100.00;102570.38;4933418;29;20059;-72
2022/11/13 07:01:07;;;;;;;163.05;54.10;;;;;;;4.89;100.00;102572.75;4922877;29;20106;-72
2022/11/13 07:03:32;;;;;;;155.32;52.53;;;;;;;4.89;100.00;102578.13;4915930;29;20032;-72
2022/11/13 07:06:02;;;;;;;163.93;55.30;;;;;;;4.85;100.00;102581.91;4930167;29;20032;-72
2022/11/13 07:08:27;;;;;;;193.93;61.58;;;;;;;4.90;100.00;102585.22;4924035;29;20027;-71
2022/11/13 07:10:54;;;;;;;152.98;49.50;;;;;;;4.90;100.00;102579.88;4949701;29;20028;-72
2022/11/13 07:13:20;;;;;;;170.57;55.92;;;;;;;4.94;100.00;102586.78;4934554;29;20035;-72
2022/11/13 07:15:46;;;;;;;169.00;54.15;;;;;;;5.01;100.00;102582.84;4949696;28;20043;-73
2022/11/13 07:18:11;;;;;;;197.23;59.25;;;;;;;4.95;100.00;102577.78;4935053;29;20031;-73
2022/11/13 07:20:37;;;;;;;183.75;55.95;;;;;;;4.96;100.00;102584.91;4949238;29;20111;-73
2022/11/13 07:23:03;;;;;;;200.18;59.17;;;;;;;5.05;100.00;102579.06;4949290;29;20055;-73
2022/11/13 07:25:29;;;;;;;144.20;49.65;;;;;;;5.23;100.00;102587.09;4948324;29;20031;-74
2022/11/13 07:27:55;;;;;;;170.00;55.83;;;;;;;5.33;100.00;102588.31;4948155;29;20032;-74
2022/11/13 07:30:21;;;;;;;182.50;54.25;;;;;;;5.53;100.00;102585.41;4926731;29;20086;-74
2022/11/13 07:32:46;;;;;;;139.20;48.40;;;;;;;5.55;100.00;102583.53;4948788;29;20462;-74
2022/11/13 07:35:12;;;;;;;197.88;55.97;;;;;;;5.68;100.00;102587.28;4948259;29;20027;-74
2022/11/13 07:37:37;;;;;;;191.60;57.03;;;;;;;5.61;100.00;102583.22;4948869;29;20020;-74
2022/11/13 07:40:04;;;;;;;150.57;51.03;;;;;;;5.55;100.00;102590.72;4934514;29;20031;-74
2022/11/13 07:42:29;;;;;;;198.27;56.42;;;;;;;5.72;100.00;102586.16;4948821;29;20496;-74
2022/11/13 07:44:55;;;;;;;188.73;57.28;;;;;;;5.62;100.00;102584.94;4933891;29;20054;-74
2022/11/13 07:47:20;;;;;;;179.95;51.17;;;;;;;5.61;100.00;102585.03;4934274;29;20034;-73
2022/11/13 07:49:45;;;;;;;171.82;54.10;;;;;;;5.59;100.00;102582.41;4948276;29;20098;-73
2022/11/13 07:52:11;;;;;;;188.68;52.63;;;;;;;5.69;100.00;102586.34;4933830;29;20059;-74
2022/11/13 07:54:36;;;;;;;132.95;45.22;;;;;;;5.88;100.00;102593.38;4934113;29;20020;-74
2022/11/13 07:57:02;;;;;;;197.13;56.88;;;;;;;5.89;100.00;102595.09;4933384;29;20028;-74
2022/11/13 07:59:27;;;;;;;163.23;52.00;;;;;;;6.12;100.00;102605.44;4932071;29;20027;-74
2022/11/13 08:01:52;;;;;;;155.10;49.03;;;;;;;6.30;100.00;102602.69;4932373;29;20473;-73
2022/11/13 08:04:18;;;;;;;151.27;49.00;;;;;;;6.41;100.00;102600.25;4914392;29;20040;-73
2022/11/13 08:06:43;;;;;;;153.00;50.25;;;;;;;6.23;100.00;102600.34;4927623;29;20067;-73
2022/11/13 08:09:09;;;;;;;157.93;47.33;;;;;;;6.18;100.00;102599.72;4947353;28;20043;-73
2022/11/13 08:11:35;;;;;;;170.32;54.67;;;;;;;6.20;100.00;102592.47;4947198;29;20028;-71
2022/11/13 08:14:00;;;;;;;162.05;50.38;;;;;;;6.29;100.00;102591.06;4947712;29;20091;-73
2022/11/13 08:16:26;;;;;;;151.30;50.35;;;;;;;6.28;100.00;102588.47;4947272;29;20099;-73
2022/11/13 08:18:51;;;;;;;145.27;47.30;;;;;;;6.49;100.00;102590.75;4947941;29;20032;-74
2022/11/13 08:21:17;;;;;;;151.30;50.80;;;;;;;6.38;100.00;102589.66;4945538;29;20031;-74
2022/11/13 08:23:42;;;;;;;149.90;49.60;;;;;;;6.53;100.00;102588.78;4947365;29;20039;-74
2022/11/13 08:26:08;;;;;;;148.85;51.38;;;;;;;6.55;100.00;102592.22;4947334;29;20019;-74
2022/11/13 08:28:34;;;;;;;155.95;52.78;;;;;;;6.67;100.00;102596.91;4928094;29;20059;-73
2022/11/13 08:31:00;;;;;;;149.60;50.80;;;;;;;6.62;100.00;102585.53;4929451;29;20032;-73
2022/11/13 08:33:26;;;;;;;130.93;47.53;;;;;;;6.77;100.00;102581.91;4947622;29;20027;-73
2022/11/13 08:35:53;;;;;;;119.75;44.95;;;;;;;6.92;100.00;102584.66;4932495;29;20027;-73
2022/11/13 08:38:19;;;;;;;139.23;49.60;;;;;;;6.90;100.00;102586.56;4947205;29;20020;-73
2022/11/13 08:40:44;;;;;;;135.48;48.38;;;;;;;6.91;100.00;102594.56;4947204;29;20499;-73
2022/11/13 08:43:09;;;;;;;139.25;47.38;;;;;;;6.82;100.00;102588.84;4946683;29;20031;-73
2022/11/13 08:45:35;;;;;;;128.00;46.38;;;;;;;6.99;100.00;102596.81;4947382;29;20027;-73
2022/11/13 08:48:01;;;;;;;126.93;45.40;;;;;;;7.00;100.00;102614.69;4947522;29;20035;-73
2022/11/13 08:50:27;;;;;;;127.82;47.15;;;;;;;6.92;100.00;102598.13;4930284;29;20036;-73
2022/11/13 08:52:54;;;;;;;131.15;47.08;;;;;;;6.88;100.00;102599.25;4932486;29;20050;-73
2022/11/13 08:55:20;;;;;;;145.18;46.25;;;;;;;7.00;100.00;102593.16;4946858;29;20035;-73
2022/11/13 08:57:46;;;;;;;138.00;41.78;;;;;;;7.22;100.00;102590.84;4928759;29;20043;-72
2022/11/13 09:00:11;;;;;;;127.65;44.65;;;;;;;7.22;100.00;102598.94;4930238;29;20038;-72
2022/11/13 09:02:37;;;;;;;137.13;46.63;;;;;;;7.32;100.00;102594.72;4947293;29;20050;-73
2022/11/13 09:05:03;;;;;;;119.32;44.33;;;;;;;7.33;100.00;102593.75;4947050;29;20034;-73
2022/11/13 09:07:28;;;;;;;115.45;41.97;;;;;;;7.27;100.00;102602.22;4947027;29;20054;-73
2022/11/13 09:09:54;;;;;;;111.57;41.85;;;;;;;7.20;100.00;102597.31;4932278;29;20048;-73
2022/11/13 09:12:20;;;;;;;121.55;45.42;;;;;;;7.31;100.00;102593.00;4943719;29;20151;-73
2022/11/13 09:14:45;;;;;;;130.25;44.85;;;;;;;7.18;100.00;102602.81;4926280;29;20470;-73
2022/11/13 09:17:11;;;;;;;113.97;41.78;;;;;;;7.42;100.00;102599.53;4928602;29;20027;-74
2022/11/13 09:19:36;;;;;;;111.00;42.80;;;;;;;7.49;100.00;102590.97;4947129;28;20024;-73
2022/11/13 09:22:01;;;;;;;123.35;43.38;;;;;;;7.44;100.00;102586.84;4946429;29;20023;-73
2022/11/13 09:24:27;;;;;;;107.60;40.97;;;;;;;7.54;100.00;102588.00;4932292;29;20103;-74
2022/11/13 09:26:52;;;;;;;117.38;41.22;;;;;;;7.39;100.00;102594.34;4946855;29;20043;-73
2022/11/13 09:29:18;;;;;;;115.93;42.35;;;;;;;7.29;100.00;102600.28;4944780;29;20094;-73
2022/11/13 09:31:43;;;;;;;97.22;38.33;;;;;;;7.45;100.00;102599.38;4946509;29;20027;-73
2022/11/13 09:34:09;;;;;;;119.18;44.67;;;;;;;7.46;100.00;102601.09;4931541;29;20035;-73
2022/11/13 09:36:35;;;;;;;107.32;42.20;;;;;;;7.60;100.00;102593.00;4947375;29;20477;-74
2022/11/13 09:39:01;;;;;;;109.68;42.05;;;;;;;7.60;100.00;102593.00;4947247;29;20028;-73
2022/11/13 09:41:36;;;;;;;97.25;38.67;;;;;;;7.52;100.00;102600.72;4947114;29;20038;-74
2022/11/13 09:44:04;;;;;;;91.38;37.97;;;;;;;7.26;100.00;102589.72;4942739;29;20118;-74
2022/11/13 09:46:50;;;;;;;91.30;40.13;;;;;;;7.25;100.00;102593.38;4915692;29;20032;-75
2022/11/13 09:49:15;;;;;;;96.20;40.95;;;;;;;7.39;100.00;102594.34;4913943;29;20047;-75
2022/11/13 09:51:50;;;;;;;92.80;40.20;;;;;;;7.41;100.00;102593.28;4929869;29;20477;-75
2022/11/13 09:54:16;;;;;;;93.90;40.83;;;;;;;7.47;100.00;102597.44;4931269;29;20463;-75
2022/11/13 09:56:49;;;;;;;98.53;44.60;;;;;;;7.53;100.00;102597.06;4932551;29;20035;-74
2022/11/13 09:59:27;;;;;;;92.18;40.95;;;;;;;7.34;100.00;102592.81;4933787;23;20024;-68
2022/11/13 10:02:33;;;;;;;92.43;39.22;;;;;;;7.48;100.00;102594.63;4949593;28;20074;-69
2022/11/13 10:05:12;;;;;;;88.95;37.58;;;;;;;7.30;100.00;102591.28;4966708;28;20070;-69
2022/11/13 10:07:56;;;;;;;86.82;39.38;;;;;;;7.41;100.00;102603.19;4981081;28;20058;-69
2022/11/13 10:10:24;;;;;;;84.07;38.20;;;;;;;7.28;100.00;102587.78;4947697;28;20035;-71
2022/11/13 10:12:53;;;;;;;91.57;42.13;;;;;;;7.31;100.00;102584.91;4953544;28;20480;-71
2022/11/13 10:15:19;;;;;;;107.78;47.95;;;;;;;7.35;100.00;102594.53;4961122;28;20113;-70
2022/11/13 10:18:11;;;;;;;94.13;40.78;;;;;;;7.59;100.00;102585.88;4955055;28;20113;-70
2022/11/13 10:20:43;;;;;;;97.30;43.17;;;;;;;7.56;100.00;102594.16;4952677;28;20051;-71
2022/11/13 10:23:15;;;;;;;96.65;43.53;;;;;;;7.80;100.00;102600.69;4952867;28;20051;-71
2022/11/13 10:25:42;;;;;;;106.20;42.92;;;;;;;7.78;100.00;102594.53;4953210;28;20110;-70
2022/11/13 10:28:22;;;;;;;102.60;44.13;;;;;;;7.76;100.00;102590.19;4951376;28;20031;-71
2022/11/13 10:30:48;;;;;;;89.35;39.58;;;;;;;7.69;100.00;102597.78;4953822;28;20070;-70
2022/11/13 10:33:17;;;;;;;90.15;40.72;;;;;;;7.68;100.00;102585.28;4959184;28;20541;-71
2022/11/13 10:36:02;;;;;;;109.07;38.72;;;;;;;7.66;100.00;102586.34;4956269;28;20019;-71
2022/11/13 10:38:34;;;;;;;99.55;42.42;;;;;;;7.38;100.00;102589.94;4959966;28;20055;-70
2022/11/13 10:41:20;;;;;;;88.80;37.67;;;;;;;7.43;100.00;102585.09;4955824;28;20027;-70
2022/11/13 10:43:57;;;;;;;92.90;38.42;;;;;;;7.33;100.00;102580.28;4959077;28;20019;-70
2022/11/13 10:46:28;;;;;;;91.65;40.05;;;;;;;7.42;100.00;102567.19;4964486;28;20026;-71
2022/11/13 10:48:55;;;;;;;95.35;42.25;;;;;;;7.43;100.00;102580.56;4956068;28;20026;-70
2022/11/13 10:51:24;;;;;;;90.93;39.08;;;;;;;7.44;100.00;102576.06;4956207;28;20027;-71
2022/11/13 10:53:50;;;;;;;95.70;41.95;;;;;;;7.54;100.00;102571.81;4958899;28;20054;-69
2022/11/13 10:56:30;;;;;;;104.60;42.83;;;;;;;7.47;100.00;102570.47;4966550;28;20027;-71
2022/11/13 10:59:17;;;;;;;102.30;41.05;;;;;;;7.53;100.00;102575.47;4956045;28;20035;-69
2022/11/13 11:01:44;;;;;;;87.78;40.50;;;;;;;7.77;100.00;102568.53;4954807;28;20108;-69
2022/11/13 11:04:26;;;;;;;100.40;40.60;;;;;;;7.73;100.00;102553.50;4955150;28;20058;-70
2022/11/13 11:06:53;;;;;;;85.72;40.15;;;;;;;7.52;100.00;102552.19;4957758;28;20029;-69
2022/11/13 11:09:30;;;;;;;92.47;39.22;;;;;;;7.66;100.00;102554.88;4957650;28;20160;-69